sensor_id;sensor_type;location;lat;lon;timestamp;temperature;humidity
18041;DHT22;9145;48.588;9.250;2023-03-21T00:01:13;10.40;99.90
18041;DHT22;9145;48.588;9.250;2023-03-21T00:03:41;10.30;99.90
18041;DHT22;9145;48.588;9.250;2023-03-21T00:06:10;10.30;99.90
18041;DHT22;9145;48.588;9.250;2023-03-21T00:08:38;10.30;99.90
18041;DHT22;9145;48.588;9.250;2023-03-21T00:11:06;10.20;99.90
18041;DHT22;9145;48.588;9.250;2023-03-21T00:13:34;10.20;99.90
18041;DHT22;9145;48.588;9.250;2023-03-21T00:16:04;10.20;99.90
18041;DHT22;9145;48.588;9.250;2023-03-21T00:18:31;10.30;99.90
18041;DHT22;9145;48.588;9.250;2023-03-21T00:21:04;10.30;99.90
18041;DHT22;9145;48.588;9.250;2023-03-21T00:23:32;10.30;99.90
18041;DHT22;9145;48.588;9.250;2023-03-21T00:25:59;10.30;99.90
18041;DHT22;9145;48.588;9.250;2023-03-21T00:28:26;10.20;99.90
18041;DHT22;9145;48.588;9.250;2023-03-21T00:30:56;10.20;99.90
18041;DHT22;9145;48.588;9.250;2023-03-21T00:33:23;10.10;99.90
18041;DHT22;9145;48.588;9.250;2023-03-21T00:35:51;10.10;99.90
18041;DHT22;9145;48.588;9.250;2023-03-21T00:38:20;10.00;99.90
18041;DHT22;9145;48.588;9.250;2023-03-21T00:40:47;9.90;99.90
18041;DHT22;9145;48.588;9.250;2023-03-21T00:43:14;9.90;99.90
18041;DHT22;9145;48.588;9.250;2023-03-21T00:45:42;9.90;99.90
18041;DHT22;9145;48.588;9.250;2023-03-21T00:48:09;9.90;99.90
18041;DHT22;9145;48.588;9.250;2023-03-21T00:50:36;9.80;99.90
18041;DHT22;9145;48.588;9.250;2023-03-21T00:53:04;9.80;99.90
18041;DHT22;9145;48.588;9.250;2023-03-21T00:55:32;9.80;99.90
18041;DHT22;9145;48.588;9.250;2023-03-21T00:57:59;9.70;99.90
18041;DHT22;9145;48.588;9.250;2023-03-21T01:00:26;9.70;99.90
18041;DHT22;9145;48.588;9.250;2023-03-21T01:02:53;9.70;99.90
18041;DHT22;9145;48.588;9.250;2023-03-21T01:05:24;9.70;99.90
18041;DHT22;9145;48.588;9.250;2023-03-21T01:08:05;9.70;99.90
18041;DHT22;9145;48.588;9.250;2023-03-21T01:10:37;9.70;99.90
18041;DHT22;9145;48.588;9.250;2023-03-21T01:13:04;9.60;99.90
18041;DHT22;9145;48.588;9.250;2023-03-21T01:15:31;9.70;99.90
18041;DHT22;9145;48.588;9.250;2023-03-21T01:17:58;9.70;99.90
18041;DHT22;9145;48.588;9.250;2023-03-21T01:20:25;9.70;99.90
18041;DHT22;9145;48.588;9.250;2023-03-21T01:22:52;9.70;99.90
18041;DHT22;9145;48.588;9.250;2023-03-21T01:25:19;9.80;99.90
18041;DHT22;9145;48.588;9.250;2023-03-21T01:27:47;9.70;99.90
18041;DHT22;9145;48.588;9.250;2023-03-21T01:30:14;9.70;99.90
18041;DHT22;9145;48.588;9.250;2023-03-21T01:32:41;9.80;99.90
18041;DHT22;9145;48.588;9.250;2023-03-21T01:35:08;9.80;99.90
18041;DHT22;9145;48.588;9.250;2023-03-21T01:37:35;9.70;99.90
18041;DHT22;9145;48.588;9.250;2023-03-21T01:40:02;9.70;99.90
18041;DHT22;9145;48.588;9.250;2023-03-21T01:42:30;9.80;99.90
18041;DHT22;9145;48.588;9.250;2023-03-21T01:45:57;9.90;99.90
18041;DHT22;9145;48.588;9.250;2023-03-21T01:47:52;10.00;99.90
18041;DHT22;9145;48.588;9.250;2023-03-21T01:50:19;9.90;99.90
18041;DHT22;9145;48.588;9.250;2023-03-21T01:52:47;9.90;99.90
18041;DHT22;9145;48.588;9.250;2023-03-21T01:55:15;9.90;99.90
18041;DHT22;9145;48.588;9.250;2023-03-21T01:57:46;9.90;99.90
18041;DHT22;9145;48.588;9.250;2023-03-21T02:00:19;9.90;99.90
18041;DHT22;9145;48.588;9.250;2023-03-21T02:02:49;9.90;99.90
18041;DHT22;9145;48.588;9.250;2023-03-21T02:05:25;9.90;99.90
18041;DHT22;9145;48.588;9.250;2023-03-21T02:07:55;9.80;99.90
18041;DHT22;9145;48.588;9.250;2023-03-21T02:10:23;9.80;99.90
18041;DHT22;9145;48.588;9.250;2023-03-21T02:12:49;9.80;99.90
18041;DHT22;9145;48.588;9.250;2023-03-21T02:15:22;9.80;99.90
18041;DHT22;9145;48.588;9.250;2023-03-21T02:17:55;9.90;99.90
18041;DHT22;9145;48.588;9.250;2023-03-21T02:20:46;9.90;99.90
18041;DHT22;9145;48.588;9.250;2023-03-21T02:26:34;9.80;99.90
18041;DHT22;9145;48.588;9.250;2023-03-21T02:29:13;9.80;99.90
18041;DHT22;9145;48.588;9.250;2023-03-21T02:31:50;9.70;99.90
18041;DHT22;9145;48.588;9.250;2023-03-21T02:34:44;9.60;99.90
18041;DHT22;9145;48.588;9.250;2023-03-21T02:37:20;9.60;99.90
18041;DHT22;9145;48.588;9.250;2023-03-21T02:39:54;9.60;99.90
18041;DHT22;9145;48.588;9.250;2023-03-21T02:42:28;9.60;99.90
18041;DHT22;9145;48.588;9.250;2023-03-21T02:45:00;9.60;99.90
18041;DHT22;9145;48.588;9.250;2023-03-21T02:47:32;9.70;99.90
18041;DHT22;9145;48.588;9.250;2023-03-21T02:50:06;9.60;99.90
18041;DHT22;9145;48.588;9.250;2023-03-21T02:52:36;9.70;99.90
18041;DHT22;9145;48.588;9.250;2023-03-21T02:55:05;9.70;99.90
18041;DHT22;9145;48.588;9.250;2023-03-21T02:57:39;9.70;99.90
18041;DHT22;9145;48.588;9.250;2023-03-21T03:00:07;9.70;99.90
18041;DHT22;9145;48.588;9.250;2023-03-21T03:02:37;9.60;99.90
18041;DHT22;9145;48.588;9.250;2023-03-21T03:05:12;9.60;99.90
18041;DHT22;9145;48.588;9.250;2023-03-21T03:07:52;9.60;99.90
18041;DHT22;9145;48.588;9.250;2023-03-21T03:10:30;9.60;99.90
18041;DHT22;9145;48.588;9.250;2023-03-21T03:13:10;9.50;99.90
18041;DHT22;9145;48.588;9.250;2023-03-21T03:15:45;9.50;99.90
18041;DHT22;9145;48.588;9.250;2023-03-21T03:18:19;9.60;99.90
18041;DHT22;9145;48.588;9.250;2023-03-21T03:20:59;9.60;99.90
18041;DHT22;9145;48.588;9.250;2023-03-21T03:23:33;9.50;99.90
18041;DHT22;9145;48.588;9.250;2023-03-21T03:26:03;9.60;99.90
18041;DHT22;9145;48.588;9.250;2023-03-21T03:28:36;9.50;99.90
18041;DHT22;9145;48.588;9.250;2023-03-21T03:31:04;9.50;99.90
18041;DHT22;9145;48.588;9.250;2023-03-21T03:33:34;9.50;99.90
18041;DHT22;9145;48.588;9.250;2023-03-21T03:36:03;9.50;99.90
18041;DHT22;9145;48.588;9.250;2023-03-21T03:38:33;9.50;99.90
18041;DHT22;9145;48.588;9.250;2023-03-21T03:41:05;9.60;99.90
18041;DHT22;9145;48.588;9.250;2023-03-21T03:43:38;9.60;99.90
18041;DHT22;9145;48.588;9.250;2023-03-21T03:46:09;9.50;99.90
18041;DHT22;9145;48.588;9.250;2023-03-21T03:48:41;9.50;99.90
18041;DHT22;9145;48.588;9.250;2023-03-21T03:51:15;9.50;99.90
18041;DHT22;9145;48.588;9.250;2023-03-21T03:53:45;9.50;99.90
18041;DHT22;9145;48.588;9.250;2023-03-21T03:56:16;9.50;99.90
18041;DHT22;9145;48.588;9.250;2023-03-21T03:58:43;9.40;99.90
18041;DHT22;9145;48.588;9.250;2023-03-21T04:01:10;9.40;99.90
18041;DHT22;9145;48.588;9.250;2023-03-21T04:03:40;9.40;99.90
18041;DHT22;9145;48.588;9.250;2023-03-21T04:06:08;9.40;99.90
18041;DHT22;9145;48.588;9.250;2023-03-21T04:08:35;9.50;99.90
18041;DHT22;9145;48.588;9.250;2023-03-21T04:11:05;9.40;99.90
18041;DHT22;9145;48.588;9.250;2023-03-21T04:13:32;9.40;99.90
18041;DHT22;9145;48.588;9.250;2023-03-21T04:15:59;9.40;99.90
18041;DHT22;9145;48.588;9.250;2023-03-21T04:18:26;9.40;99.90
18041;DHT22;9145;48.588;9.250;2023-03-21T04:20:52;9.40;99.90
18041;DHT22;9145;48.588;9.250;2023-03-21T04:23:19;9.50;99.90
18041;DHT22;9145;48.588;9.250;2023-03-21T04:25:47;9.50;99.90
18041;DHT22;9145;48.588;9.250;2023-03-21T04:28:16;9.40;99.90
18041;DHT22;9145;48.588;9.250;2023-03-21T04:30:47;9.40;99.90
18041;DHT22;9145;48.588;9.250;2023-03-21T04:33:14;9.40;99.90
18041;DHT22;9145;48.588;9.250;2023-03-21T04:35:41;9.40;99.90
18041;DHT22;9145;48.588;9.250;2023-03-21T04:38:10;9.40;99.90
18041;DHT22;9145;48.588;9.250;2023-03-21T04:40:37;9.40;99.90
18041;DHT22;9145;48.588;9.250;2023-03-21T04:43:04;9.40;99.90
18041;DHT22;9145;48.588;9.250;2023-03-21T04:45:32;9.30;99.90
18041;DHT22;9145;48.588;9.250;2023-03-21T04:47:59;9.30;99.90
18041;DHT22;9145;48.588;9.250;2023-03-21T04:50:26;9.30;99.90
18041;DHT22;9145;48.588;9.250;2023-03-21T04:52:52;9.30;99.90
18041;DHT22;9145;48.588;9.250;2023-03-21T04:55:19;9.30;99.90
18041;DHT22;9145;48.588;9.250;2023-03-21T04:57:47;9.30;99.90
18041;DHT22;9145;48.588;9.250;2023-03-21T05:00:14;9.20;99.90
18041;DHT22;9145;48.588;9.250;2023-03-21T05:02:43;9.20;99.90
18041;DHT22;9145;48.588;9.250;2023-03-21T05:05:10;9.30;99.90
18041;DHT22;9145;48.588;9.250;2023-03-21T05:07:38;9.20;99.90
18041;DHT22;9145;48.588;9.250;2023-03-21T05:10:05;9.10;99.90
18041;DHT22;9145;48.588;9.250;2023-03-21T05:12:32;9.10;99.90
18041;DHT22;9145;48.588;9.250;2023-03-21T05:14:59;9.10;99.90
18041;DHT22;9145;48.588;9.250;2023-03-21T05:17:26;9.10;99.90
18041;DHT22;9145;48.588;9.250;2023-03-21T05:19:55;9.10;99.90
18041;DHT22;9145;48.588;9.250;2023-03-21T05:22:23;9.10;99.90
18041;DHT22;9145;48.588;9.250;2023-03-21T05:24:51;9.20;99.90
18041;DHT22;9145;48.588;9.250;2023-03-21T05:27:20;9.10;99.90
18041;DHT22;9145;48.588;9.250;2023-03-21T05:30:02;9.10;99.90
18041;DHT22;9145;48.588;9.250;2023-03-21T05:32:30;9.10;99.90
18041;DHT22;9145;48.588;9.250;2023-03-21T05:34:58;9.00;99.90
18041;DHT22;9145;48.588;9.250;2023-03-21T05:37:25;9.00;99.90
18041;DHT22;9145;48.588;9.250;2023-03-21T05:39:51;9.00;99.90
18041;DHT22;9145;48.588;9.250;2023-03-21T05:42:19;9.00;99.90
18041;DHT22;9145;48.588;9.250;2023-03-21T05:44:46;8.90;99.90
18041;DHT22;9145;48.588;9.250;2023-03-21T05:47:13;9.00;99.90
18041;DHT22;9145;48.588;9.250;2023-03-21T05:49:40;9.00;99.90
18041;DHT22;9145;48.588;9.250;2023-03-21T05:52:09;9.00;99.90
18041;DHT22;9145;48.588;9.250;2023-03-21T05:54:36;9.10;99.90
18041;DHT22;9145;48.588;9.250;2023-03-21T05:57:04;9.10;99.90
18041;DHT22;9145;48.588;9.250;2023-03-21T05:59:30;9.20;99.90
18041;DHT22;9145;48.588;9.250;2023-03-21T06:01:57;9.30;99.90
18041;DHT22;9145;48.588;9.250;2023-03-21T06:04:25;9.30;99.90
18041;DHT22;9145;48.588;9.250;2023-03-21T06:06:52;9.30;99.90
18041;DHT22;9145;48.588;9.250;2023-03-21T06:09:21;9.30;99.90
18041;DHT22;9145;48.588;9.250;2023-03-21T06:11:51;9.30;99.90
18041;DHT22;9145;48.588;9.250;2023-03-21T06:14:19;9.30;99.90
18041;DHT22;9145;48.588;9.250;2023-03-21T06:16:46;9.30;99.90
18041;DHT22;9145;48.588;9.250;2023-03-21T06:19:13;9.20;99.90
18041;DHT22;9145;48.588;9.250;2023-03-21T06:21:40;9.20;99.90
18041;DHT22;9145;48.588;9.250;2023-03-21T06:24:07;9.30;99.90
18041;DHT22;9145;48.588;9.250;2023-03-21T06:26:35;9.20;99.90
18041;DHT22;9145;48.588;9.250;2023-03-21T06:29:02;9.10;99.90
18041;DHT22;9145;48.588;9.250;2023-03-21T06:31:29;9.00;99.90
18041;DHT22;9145;48.588;9.250;2023-03-21T06:33:56;9.00;99.90
18041;DHT22;9145;48.588;9.250;2023-03-21T06:36:23;9.00;99.90
18041;DHT22;9145;48.588;9.250;2023-03-21T06:38:49;8.90;99.90
18041;DHT22;9145;48.588;9.250;2023-03-21T06:41:16;8.90;99.90
18041;DHT22;9145;48.588;9.250;2023-03-21T06:43:44;9.00;99.90
18041;DHT22;9145;48.588;9.250;2023-03-21T06:46:13;9.00;99.90
18041;DHT22;9145;48.588;9.250;2023-03-21T06:48:40;8.90;99.90
18041;DHT22;9145;48.588;9.250;2023-03-21T06:51:09;9.00;99.90
18041;DHT22;9145;48.588;9.250;2023-03-21T06:53:37;9.10;99.90
18041;DHT22;9145;48.588;9.250;2023-03-21T06:56:04;9.20;99.90
18041;DHT22;9145;48.588;9.250;2023-03-21T06:58:32;9.30;99.90
18041;DHT22;9145;48.588;9.250;2023-03-21T07:01:01;9.40;99.90
18041;DHT22;9145;48.588;9.250;2023-03-21T07:03:28;9.40;99.90
18041;DHT22;9145;48.588;9.250;2023-03-21T07:05:56;9.50;99.90
18041;DHT22;9145;48.588;9.250;2023-03-21T07:08:23;9.60;99.90
18041;DHT22;9145;48.588;9.250;2023-03-21T07:10:54;9.70;99.90
18041;DHT22;9145;48.588;9.250;2023-03-21T07:13:22;9.70;99.90
18041;DHT22;9145;48.588;9.250;2023-03-21T07:15:48;9.70;99.90
18041;DHT22;9145;48.588;9.250;2023-03-21T07:18:17;9.70;99.90
18041;DHT22;9145;48.588;9.250;2023-03-21T07:20:45;9.60;99.90
18041;DHT22;9145;48.588;9.250;2023-03-21T07:23:15;9.60;99.90
18041;DHT22;9145;48.588;9.250;2023-03-21T07:25:42;9.60;99.90
18041;DHT22;9145;48.588;9.250;2023-03-21T07:28:09;9.70;99.90
18041;DHT22;9145;48.588;9.250;2023-03-21T07:30:39;9.80;99.90
18041;DHT22;9145;48.588;9.250;2023-03-21T07:33:06;9.80;99.90
18041;DHT22;9145;48.588;9.250;2023-03-21T07:35:34;9.80;99.90
18041;DHT22;9145;48.588;9.250;2023-03-21T07:38:02;9.70;99.90
18041;DHT22;9145;48.588;9.250;2023-03-21T07:40:29;9.70;99.90
18041;DHT22;9145;48.588;9.250;2023-03-21T07:42:56;9.70;99.90
18041;DHT22;9145;48.588;9.250;2023-03-21T07:45:23;9.80;99.90
18041;DHT22;9145;48.588;9.250;2023-03-21T07:47:51;9.80;99.90
18041;DHT22;9145;48.588;9.250;2023-03-21T07:50:19;9.80;99.90
18041;DHT22;9145;48.588;9.250;2023-03-21T07:52:47;9.80;99.90
18041;DHT22;9145;48.588;9.250;2023-03-21T07:55:14;9.80;99.90
18041;DHT22;9145;48.588;9.250;2023-03-21T07:57:42;9.90;99.90
18041;DHT22;9145;48.588;9.250;2023-03-21T08:00:10;9.90;99.90
18041;DHT22;9145;48.588;9.250;2023-03-21T08:02:37;9.90;99.90
18041;DHT22;9145;48.588;9.250;2023-03-21T08:05:04;10.00;99.90
18041;DHT22;9145;48.588;9.250;2023-03-21T08:07:31;10.10;99.90
18041;DHT22;9145;48.588;9.250;2023-03-21T08:09:59;10.10;99.90
18041;DHT22;9145;48.588;9.250;2023-03-21T08:12:26;10.20;99.90
18041;DHT22;9145;48.588;9.250;2023-03-21T08:14:52;10.30;99.90
18041;DHT22;9145;48.588;9.250;2023-03-21T08:17:19;10.40;99.90
18041;DHT22;9145;48.588;9.250;2023-03-21T08:19:46;10.40;99.90
18041;DHT22;9145;48.588;9.250;2023-03-21T08:22:13;10.50;99.90
18041;DHT22;9145;48.588;9.250;2023-03-21T08:24:40;10.50;99.90
18041;DHT22;9145;48.588;9.250;2023-03-21T08:27:08;10.60;99.90
18041;DHT22;9145;48.588;9.250;2023-03-21T08:29:36;10.80;99.90
18041;DHT22;9145;48.588;9.250;2023-03-21T08:32:06;10.90;99.90
18041;DHT22;9145;48.588;9.250;2023-03-21T08:34:33;11.10;99.90
18041;DHT22;9145;48.588;9.250;2023-03-21T08:37:01;11.20;99.90
18041;DHT22;9145;48.588;9.250;2023-03-21T08:39:28;11.40;99.90
18041;DHT22;9145;48.588;9.250;2023-03-21T08:41:55;11.70;99.90
18041;DHT22;9145;48.588;9.250;2023-03-21T08:44:23;11.90;99.90
18041;DHT22;9145;48.588;9.250;2023-03-21T08:46:50;12.10;99.90
18041;DHT22;9145;48.588;9.250;2023-03-21T08:49:17;12.20;99.90
18041;DHT22;9145;48.588;9.250;2023-03-21T08:51:44;12.20;99.90
18041;DHT22;9145;48.588;9.250;2023-03-21T08:54:18;12.20;99.90
18041;DHT22;9145;48.588;9.250;2023-03-21T08:56:45;12.20;99.90
18041;DHT22;9145;48.588;9.250;2023-03-21T08:59:12;12.30;99.90
18041;DHT22;9145;48.588;9.250;2023-03-21T09:01:40;12.40;99.90
18041;DHT22;9145;48.588;9.250;2023-03-21T09:04:06;12.50;99.90
18041;DHT22;9145;48.588;9.250;2023-03-21T09:06:35;12.60;99.90
18041;DHT22;9145;48.588;9.250;2023-03-21T09:09:03;12.70;99.90
18041;DHT22;9145;48.588;9.250;2023-03-21T09:11:32;12.90;99.90
18041;DHT22;9145;48.588;9.250;2023-03-21T09:13:59;13.20;99.90
18041;DHT22;9145;48.588;9.250;2023-03-21T09:16:26;13.40;99.90
18041;DHT22;9145;48.588;9.250;2023-03-21T09:18:54;13.60;99.90
18041;DHT22;9145;48.588;9.250;2023-03-21T09:21:25;13.60;99.90
18041;DHT22;9145;48.588;9.250;2023-03-21T09:23:54;13.60;99.90
18041;DHT22;9145;48.588;9.250;2023-03-21T09:26:23;13.70;99.90
18041;DHT22;9145;48.588;9.250;2023-03-21T09:28:50;13.80;99.90
18041;DHT22;9145;48.588;9.250;2023-03-21T09:31:18;13.90;99.90
18041;DHT22;9145;48.588;9.250;2023-03-21T09:33:47;13.80;99.90
18041;DHT22;9145;48.588;9.250;2023-03-21T09:36:16;13.90;99.90
18041;DHT22;9145;48.588;9.250;2023-03-21T09:38:47;13.80;99.90
18041;DHT22;9145;48.588;9.250;2023-03-21T09:41:38;14.00;99.90
18041;DHT22;9145;48.588;9.250;2023-03-21T09:44:22;14.10;99.90
18041;DHT22;9145;48.588;9.250;2023-03-21T09:46:55;14.20;99.90
18041;DHT22;9145;48.588;9.250;2023-03-21T09:49:30;14.30;99.90
18041;DHT22;9145;48.588;9.250;2023-03-21T09:52:02;14.20;99.90
18041;DHT22;9145;48.588;9.250;2023-03-21T09:54:34;14.20;99.90
18041;DHT22;9145;48.588;9.250;2023-03-21T09:57:09;14.40;99.90
18041;DHT22;9145;48.588;9.250;2023-03-21T09:59:39;14.40;99.90
18041;DHT22;9145;48.588;9.250;2023-03-21T10:02:25;14.60;99.90
18041;DHT22;9145;48.588;9.250;2023-03-21T10:04:57;14.80;99.90
18041;DHT22;9145;48.588;9.250;2023-03-21T10:07:26;14.80;99.90
18041;DHT22;9145;48.588;9.250;2023-03-21T10:09:56;14.90;99.90
18041;DHT22;9145;48.588;9.250;2023-03-21T10:12:24;15.00;99.90
18041;DHT22;9145;48.588;9.250;2023-03-21T10:14:57;15.20;99.90
18041;DHT22;9145;48.588;9.250;2023-03-21T10:17:27;15.30;99.90
18041;DHT22;9145;48.588;9.250;2023-03-21T10:20:00;15.60;99.90
18041;DHT22;9145;48.588;9.250;2023-03-21T10:22:37;15.60;99.90
18041;DHT22;9145;48.588;9.250;2023-03-21T10:25:04;15.70;99.90
18041;DHT22;9145;48.588;9.250;2023-03-21T10:27:32;15.70;99.90
18041;DHT22;9145;48.588;9.250;2023-03-21T10:30:01;15.80;99.90
18041;DHT22;9145;48.588;9.250;2023-03-21T10:32:32;16.10;99.90
18041;DHT22;9145;48.588;9.250;2023-03-21T10:34:59;16.20;99.90
18041;DHT22;9145;48.588;9.250;2023-03-21T10:37:28;16.20;99.90
18041;DHT22;9145;48.588;9.250;2023-03-21T10:39:57;16.20;99.90
18041;DHT22;9145;48.588;9.250;2023-03-21T10:42:26;16.20;99.90
18041;DHT22;9145;48.588;9.250;2023-03-21T10:44:55;16.10;99.90
18041;DHT22;9145;48.588;9.250;2023-03-21T10:47:24;16.00;99.90
18041;DHT22;9145;48.588;9.250;2023-03-21T10:49:51;15.90;99.90
18041;DHT22;9145;48.588;9.250;2023-03-21T10:52:20;16.00;99.90
18041;DHT22;9145;48.588;9.250;2023-03-21T10:54:48;15.90;99.90
18041;DHT22;9145;48.588;9.250;2023-03-21T10:57:19;16.00;99.90
18041;DHT22;9145;48.588;9.250;2023-03-21T10:59:50;16.10;99.90
18041;DHT22;9145;48.588;9.250;2023-03-21T11:02:23;16.10;99.90
18041;DHT22;9145;48.588;9.250;2023-03-21T11:04:51;16.10;99.90
18041;DHT22;9145;48.588;9.250;2023-03-21T11:07:18;16.20;99.90
18041;DHT22;9145;48.588;9.250;2023-03-21T11:09:48;16.20;99.90
18041;DHT22;9145;48.588;9.250;2023-03-21T11:12:17;16.30;99.90
18041;DHT22;9145;48.588;9.250;2023-03-21T11:14:46;16.30;99.90
18041;DHT22;9145;48.588;9.250;2023-03-21T11:17:21;16.40;99.90
18041;DHT22;9145;48.588;9.250;2023-03-21T11:19:50;16.30;99.90
18041;DHT22;9145;48.588;9.250;2023-03-21T11:22:20;16.50;99.90
18041;DHT22;9145;48.588;9.250;2023-03-21T11:24:49;16.50;99.90
18041;DHT22;9145;48.588;9.250;2023-03-21T11:27:18;16.50;99.90
18041;DHT22;9145;48.588;9.250;2023-03-21T11:29:47;16.60;99.90
18041;DHT22;9145;48.588;9.250;2023-03-21T11:32:20;16.60;99.90
18041;DHT22;9145;48.588;9.250;2023-03-21T11:34:48;16.60;99.90
18041;DHT22;9145;48.588;9.250;2023-03-21T11:37:20;16.50;99.90
18041;DHT22;9145;48.588;9.250;2023-03-21T11:39:47;16.40;99.90
18041;DHT22;9145;48.588;9.250;2023-03-21T11:42:29;16.30;99.90
18041;DHT22;9145;48.588;9.250;2023-03-21T11:45:02;16.40;99.90
18041;DHT22;9145;48.588;9.250;2023-03-21T11:47:29;16.30;99.90
18041;DHT22;9145;48.588;9.250;2023-03-21T11:49:56;16.40;99.90
18041;DHT22;9145;48.588;9.250;2023-03-21T11:52:31;16.50;99.90
18041;DHT22;9145;48.588;9.250;2023-03-21T11:55:12;16.50;99.90
18041;DHT22;9145;48.588;9.250;2023-03-21T11:57:52;16.70;99.90
18041;DHT22;9145;48.588;9.250;2023-03-21T12:00:25;16.70;99.90
18041;DHT22;9145;48.588;9.250;2023-03-21T12:03:15;16.70;99.90
18041;DHT22;9145;48.588;9.250;2023-03-21T12:05:52;16.60;99.90
18041;DHT22;9145;48.588;9.250;2023-03-21T12:08:26;16.50;99.90
18041;DHT22;9145;48.588;9.250;2023-03-21T12:11:01;16.60;99.90
18041;DHT22;9145;48.588;9.250;2023-03-21T12:13:40;16.60;99.90
18041;DHT22;9145;48.588;9.250;2023-03-21T12:19:15;16.50;99.90
18041;DHT22;9145;48.588;9.250;2023-03-21T12:21:53;16.70;99.90
18041;DHT22;9145;48.588;9.250;2023-03-21T12:24:24;16.70;99.90
18041;DHT22;9145;48.588;9.250;2023-03-21T12:26:57;16.70;99.90
18041;DHT22;9145;48.588;9.250;2023-03-21T12:29:55;16.60;99.90
18041;DHT22;9145;48.588;9.250;2023-03-21T12:32:38;16.60;99.90
18041;DHT22;9145;48.588;9.250;2023-03-21T12:35:30;16.70;99.90
18041;DHT22;9145;48.588;9.250;2023-03-21T12:38:07;16.70;99.90
18041;DHT22;9145;48.588;9.250;2023-03-21T12:40:50;16.70;99.90
18041;DHT22;9145;48.588;9.250;2023-03-21T12:43:29;16.70;99.90
18041;DHT22;9145;48.588;9.250;2023-03-21T12:46:01;16.60;99.90
18041;DHT22;9145;48.588;9.250;2023-03-21T12:48:37;16.60;99.90
18041;DHT22;9145;48.588;9.250;2023-03-21T12:51:10;16.50;99.90
18041;DHT22;9145;48.588;9.250;2023-03-21T12:53:50;16.50;99.90
18041;DHT22;9145;48.588;9.250;2023-03-21T12:56:22;16.50;99.90
18041;DHT22;9145;48.588;9.250;2023-03-21T12:58:54;16.60;99.90
18041;DHT22;9145;48.588;9.250;2023-03-21T13:01:25;16.50;99.90
18041;DHT22;9145;48.588;9.250;2023-03-21T13:04:05;16.50;99.90
18041;DHT22;9145;48.588;9.250;2023-03-21T13:06:34;16.50;99.90
18041;DHT22;9145;48.588;9.250;2023-03-21T13:09:09;16.50;99.90
18041;DHT22;9145;48.588;9.250;2023-03-21T13:11:40;16.50;99.90
18041;DHT22;9145;48.588;9.250;2023-03-21T13:14:12;16.70;99.90
18041;DHT22;9145;48.588;9.250;2023-03-21T13:16:46;16.80;99.90
18041;DHT22;9145;48.588;9.250;2023-03-21T13:19:18;16.80;99.90
18041;DHT22;9145;48.588;9.250;2023-03-21T13:21:52;16.90;99.90
18041;DHT22;9145;48.588;9.250;2023-03-21T13:24:25;17.20;99.90
18041;DHT22;9145;48.588;9.250;2023-03-21T13:27:00;17.20;99.90
18041;DHT22;9145;48.588;9.250;2023-03-21T13:29:30;17.20;99.90
18041;DHT22;9145;48.588;9.250;2023-03-21T13:32:07;17.30;99.90
18041;DHT22;9145;48.588;9.250;2023-03-21T13:34:37;17.50;99.90
18041;DHT22;9145;48.588;9.250;2023-03-21T13:37:05;17.80;99.90
18041;DHT22;9145;48.588;9.250;2023-03-21T13:39:42;18.00;99.90
18041;DHT22;9145;48.588;9.250;2023-03-21T13:42:19;17.70;99.90
18041;DHT22;9145;48.588;9.250;2023-03-21T13:44:48;17.70;99.90
18041;DHT22;9145;48.588;9.250;2023-03-21T13:47:39;17.80;99.90
18041;DHT22;9145;48.588;9.250;2023-03-21T13:50:33;17.80;99.90
18041;DHT22;9145;48.588;9.250;2023-03-21T13:53:20;17.70;99.90
18041;DHT22;9145;48.588;9.250;2023-03-21T13:56:06;17.70;99.90
18041;DHT22;9145;48.588;9.250;2023-03-21T13:58:36;17.80;99.90
18041;DHT22;9145;48.588;9.250;2023-03-21T14:01:23;17.70;99.90
18041;DHT22;9145;48.588;9.250;2023-03-21T14:03:58;17.50;99.90
18041;DHT22;9145;48.588;9.250;2023-03-21T14:06:31;17.30;99.90
18041;DHT22;9145;48.588;9.250;2023-03-21T14:09:00;17.30;99.90
18041;DHT22;9145;48.588;9.250;2023-03-21T14:11:28;17.40;99.90
18041;DHT22;9145;48.588;9.250;2023-03-21T14:13:58;17.40;99.90
18041;DHT22;9145;48.588;9.250;2023-03-21T14:16:26;17.40;99.90
18041;DHT22;9145;48.588;9.250;2023-03-21T14:18:55;17.30;99.90
18041;DHT22;9145;48.588;9.250;2023-03-21T14:21:25;17.30;99.90
18041;DHT22;9145;48.588;9.250;2023-03-21T14:24:01;17.30;99.90
18041;DHT22;9145;48.588;9.250;2023-03-21T14:26:31;17.30;99.90
18041;DHT22;9145;48.588;9.250;2023-03-21T14:28:59;17.20;99.90
18041;DHT22;9145;48.588;9.250;2023-03-21T14:31:27;17.30;99.90
18041;DHT22;9145;48.588;9.250;2023-03-21T14:33:56;17.20;99.90
18041;DHT22;9145;48.588;9.250;2023-03-21T14:36:27;17.20;99.90
18041;DHT22;9145;48.588;9.250;2023-03-21T14:38:58;17.20;99.90
18041;DHT22;9145;48.588;9.250;2023-03-21T14:41:30;17.10;99.90
18041;DHT22;9145;48.588;9.250;2023-03-21T14:44:09;17.10;99.90
18041;DHT22;9145;48.588;9.250;2023-03-21T14:46:37;17.10;99.90
18041;DHT22;9145;48.588;9.250;2023-03-21T14:49:12;17.10;99.90
18041;DHT22;9145;48.588;9.250;2023-03-21T14:51:40;17.10;99.90
18041;DHT22;9145;48.588;9.250;2023-03-21T14:54:11;17.20;99.90
18041;DHT22;9145;48.588;9.250;2023-03-21T14:56:39;17.20;99.90
18041;DHT22;9145;48.588;9.250;2023-03-21T14:59:10;17.20;99.90
18041;DHT22;9145;48.588;9.250;2023-03-21T15:01:37;17.30;99.90
18041;DHT22;9145;48.588;9.250;2023-03-21T15:04:05;17.30;99.90
18041;DHT22;9145;48.588;9.250;2023-03-21T15:06:32;17.20;99.90
18041;DHT22;9145;48.588;9.250;2023-03-21T15:09:03;17.20;99.90
18041;DHT22;9145;48.588;9.250;2023-03-21T15:11:33;17.30;99.90
18041;DHT22;9145;48.588;9.250;2023-03-21T15:14:02;17.20;99.50
18041;DHT22;9145;48.588;9.250;2023-03-21T15:16:31;17.20;99.90
18041;DHT22;9145;48.588;9.250;2023-03-21T15:18:59;17.20;99.60
18041;DHT22;9145;48.588;9.250;2023-03-21T15:21:28;17.10;99.90
18041;DHT22;9145;48.588;9.250;2023-03-21T15:23:57;17.00;99.90
18041;DHT22;9145;48.588;9.250;2023-03-21T15:26:29;17.00;99.90
18041;DHT22;9145;48.588;9.250;2023-03-21T15:28:58;17.00;99.60
18041;DHT22;9145;48.588;9.250;2023-03-21T15:31:29;17.10;98.50
18041;DHT22;9145;48.588;9.250;2023-03-21T15:33:56;17.10;99.90
18041;DHT22;9145;48.588;9.250;2023-03-21T15:36:25;17.10;99.80
18041;DHT22;9145;48.588;9.250;2023-03-21T15:38:54;17.10;98.20
18041;DHT22;9145;48.588;9.250;2023-03-21T15:41:29;17.00;99.00
18041;DHT22;9145;48.588;9.250;2023-03-21T15:44:04;17.00;98.50
18041;DHT22;9145;48.588;9.250;2023-03-21T15:46:33;16.90;99.90
18041;DHT22;9145;48.588;9.250;2023-03-21T15:49:09;16.90;98.70
18041;DHT22;9145;48.588;9.250;2023-03-21T15:51:45;16.80;99.20
18041;DHT22;9145;48.588;9.250;2023-03-21T15:54:14;16.80;98.40
18041;DHT22;9145;48.588;9.250;2023-03-21T15:56:43;16.70;99.90
18041;DHT22;9145;48.588;9.250;2023-03-21T15:59:13;16.60;99.80
18041;DHT22;9145;48.588;9.250;2023-03-21T16:01:44;16.60;99.90
18041;DHT22;9145;48.588;9.250;2023-03-21T16:04:12;16.60;99.90
18041;DHT22;9145;48.588;9.250;2023-03-21T16:06:50;16.50;99.90
18041;DHT22;9145;48.588;9.250;2023-03-21T16:09:18;16.50;99.90
18041;DHT22;9145;48.588;9.250;2023-03-21T16:11:50;16.40;99.90
18041;DHT22;9145;48.588;9.250;2023-03-21T16:14:17;16.30;99.90
18041;DHT22;9145;48.588;9.250;2023-03-21T16:16:45;16.30;99.90
18041;DHT22;9145;48.588;9.250;2023-03-21T16:19:12;16.30;99.90